Time;durP1;ratioP1;P1;durP2;ratioP2;P2;SDS_P1;SDS_P2;PMS_P1;PMS_P2;Temp;Humidity;BMP_temperature;BMP_pressure;BME280_temperature;BME280_humidity;BME280_pressure;Samples;Min_cycle;Max_cycle;Signal;HPM_P1;HPM_P2
2023/08/15 00:02:16;;;;;;;3.97;2.65;;;22.50;99.90;;;;;;5013297;28;20018;-62
2023/08/15 00:04:42;;;;;;;8.02;2.50;;;22.50;99.90;;;;;;5011846;28;20033;-63
2023/08/15 00:07:08;;;;;;;4.72;2.45;;;22.50;99.90;;;;;;5010399;28;20069;-63
2023/08/15 00:09:34;;;;;;;4.97;3.08;;;22.60;99.90;;;;;;5012299;28;20512;-62
2023/08/15 00:11:59;;;;;;;10.30;3.38;;;22.50;99.90;;;;;;5013474;28;20072;-63
2023/08/15 00:14:26;;;;;;;7.38;3.25;;;22.50;99.90;;;;;;5012596;28;20034;-62
2023/08/15 00:16:52;;;;;;;11.52;3.08;;;22.60;99.90;;;;;;5012287;28;20049;-63
2023/08/15 00:19:18;;;;;;;5.85;3.05;;;22.70;99.90;;;;;;5013551;28;20025;-63
2023/08/15 00:21:43;;;;;;;5.07;3.20;;;22.70;99.90;;;;;;5013362;28;20477;-64
2023/08/15 00:24:09;;;;;;;4.82;2.83;;;22.70;99.90;;;;;;5011279;28;20037;-63
2023/08/15 00:26:35;;;;;;;5.38;2.95;;;22.60;99.90;;;;;;5013253;28;20462;-62
2023/08/15 00:29:01;;;;;;;6.60;3.05;;;22.70;99.90;;;;;;5011868;28;20029;-62
2023/08/15 00:31:26;;;;;;;6.40;2.65;;;22.60;99.90;;;;;;5013176;28;20374;-63
2023/08/15 00:33:52;;;;;;;5.03;3.05;;;22.20;99.90;;;;;;5012329;28;20030;-63
2023/08/15 00:36:18;;;;;;;8.13;3.42;;;21.80;99.90;;;;;;5012968;28;20402;-63
2023/08/15 00:38:44;;;;;;;6.50;3.15;;;21.70;99.90;;;;;;5013026;28;20088;-63
2023/08/15 00:41:10;;;;;;;10.05;2.85;;;21.80;99.90;;;;;;5012846;28;20022;-63
2023/08/15 00:43:36;;;;;;;5.97;3.20;;;21.80;99.90;;;;;;5010984;28;20026;-63
2023/08/15 00:46:05;;;;;;;5.78;3.20;;;21.70;99.90;;;;;;5012865;28;20051;-63
2023/08/15 00:48:32;;;;;;;6.05;3.13;;;21.80;99.90;;;;;;5011733;28;20033;-63
2023/08/15 00:51:00;;;;;;;7.50;3.67;;;21.90;99.90;;;;;;5011617;28;20045;-62
2023/08/15 00:53:29;;;;;;;12.55;3.00;;;21.80;99.90;;;;;;4994569;28;20034;-63
2023/08/15 00:55:58;;;;;;;5.47;3.15;;;21.90;99.90;;;;;;5011540;28;20030;-62
2023/08/15 00:58:24;;;;;;;3.90;2.70;;;22.00;99.90;;;;;;5011343;28;20037;-62
2023/08/15 01:00:53;;;;;;;5.80;3.78;;;21.90;99.90;;;;;;5011509;28;20482;-62
2023/08/15 01:03:19;;;;;;;8.77;3.72;;;22.00;99.90;;;;;;5010405;28;20038;-63
2023/08/15 01:05:47;;;;;;;5.32;3.28;;;22.00;99.90;;;;;;5004074;28;20029;-62
2023/08/15 01:08:13;;;;;;;5.65;3.33;;;22.10;99.90;;;;;;5008862;28;20041;-63
2023/08/15 01:10:40;;;;;;;5.55;3.00;;;22.20;99.90;;;;;;5032729;28;20032;-63
2023/08/15 01:13:37;;;;;;;10.73;3.72;;;22.10;99.90;;;;;;5043275;28;20117;-63
2023/08/15 01:16:07;;;;;;;6.13;3.03;;;22.20;99.90;;;;;;4999499;28;20105;-63
2023/08/15 01:18:45;;;;;;;6.82;2.80;;;22.30;99.90;;;;;;4991684;28;20105;-62
2023/08/15 01:21:16;;;;;;;4.60;2.88;;;22.40;99.90;;;;;;4991553;28;20061;-65
2023/08/15 01:23:45;;;;;;;;;;;22.30;99.90;;;;;;4996610;28;20533;-63
2023/08/15 01:26:11;;;;;;;6.97;3.03;;;22.10;99.90;;;;;;5012142;28;19913;-63
2023/08/15 01:28:40;;;;;;;6.13;3.20;;;22.10;99.90;;;;;;5043598;28;20112;-63
2023/08/15 01:31:36;;;;;;;4.28;2.38;;;21.90;99.90;;;;;;5042819;28;20124;-63
2023/08/15 01:34:25;;;;;;;4.63;2.85;;;21.70;99.90;;;;;;5011056;28;20052;-63
2023/08/15 01:37:00;;;;;;;7.53;3.22;;;21.80;99.90;;;;;;5042088;28;20030;-63
2023/08/15 01:39:29;;;;;;;5.13;2.63;;;21.60;99.90;;;;;;5042721;28;20085;-63
2023/08/15 01:41:58;;;;;;;5.65;2.97;;;21.50;99.90;;;;;;5031350;28;20049;-63
2023/08/15 01:44:25;;;;;;;6.35;2.72;;;21.50;99.90;;;;;;5009792;28;20041;-63
2023/08/15 01:46:51;;;;;;;5.65;2.88;;;21.70;99.90;;;;;;5010274;28;20422;-63
2023/08/15 01:49:17;;;;;;;6.40;2.85;;;21.60;99.90;;;;;;5010529;28;20041;-62
2023/08/15 01:51:42;;;;;;;6.75;3.95;;;21.60;99.90;;;;;;5011699;28;20030;-63
2023/08/15 01:54:08;;;;;;;7.68;3.05;;;21.60;99.90;;;;;;5009273;28;20037;-63
2023/08/15 01:56:34;;;;;;;4.35;2.72;;;21.50;99.90;;;;;;5011538;28;20535;-63
2023/08/15 01:59:00;;;;;;;6.65;2.72;;;21.40;99.90;;;;;;5011497;28;20486;-62
2023/08/15 02:01:25;;;;;;;7.00;3.03;;;21.40;99.90;;;;;;5011418;28;20026;-62
2023/08/15 02:03:51;;;;;;;6.25;2.80;;;21.30;99.90;;;;;;5010520;28;20030;-62
2023/08/15 02:06:17;;;;;;;6.18;3.55;;;21.30;99.90;;;;;;5011546;28;20034;-62
2023/08/15 02:08:43;;;;;;;5.82;3.28;;;21.50;99.90;;;;;;5011155;28;20514;-62
2023/08/15 02:11:08;;;;;;;7.18;3.40;;;21.50;99.90;;;;;;5011438;28;20061;-63
2023/08/15 02:13:34;;;;;;;6.72;2.95;;;21.40;99.90;;;;;;5010469;28;20132;-63
2023/08/15 02:16:01;;;;;;;7.03;3.25;;;21.30;99.90;;;;;;5011194;28;20026;-63
2023/08/15 02:18:31;;;;;;;6.85;3.58;;;21.50;99.90;;;;;;5011273;28;20022;-63
2023/08/15 02:20:57;;;;;;;5.75;2.92;;;21.60;99.90;;;;;;5010999;28;20036;-63
2023/08/15 02:23:22;;;;;;;8.55;4.45;;;21.60;99.90;;;;;;5010625;28;20113;-63
2023/08/15 02:25:48;;;;;;;6.70;3.78;;;21.60;99.90;;;;;;5042737;28;20026;-63
2023/08/15 02:28:14;;;;;;;8.88;3.53;;;21.60;99.90;;;;;;5042809;28;20033;-63
2023/08/15 02:30:40;;;;;;;8.18;4.20;;;21.50;99.90;;;;;;5042542;28;20064;-63
2023/08/15 02:33:06;;;;;;;9.52;4.25;;;21.50;99.90;;;;;;5010119;28;20217;-63
2023/08/15 02:35:33;;;;;;;8.52;4.00;;;21.50;99.90;;;;;;5034336;28;20026;-63
2023/08/15 02:37:58;;;;;;;10.73;4.15;;;21.70;99.90;;;;;;5010921;28;20030;-63
2023/08/15 02:40:26;;;;;;;7.85;3.97;;;21.80;99.90;;;;;;5010958;28;20030;-63
2023/08/15 02:42:52;;;;;;;12.98;5.13;;;21.90;99.90;;;;;;5010103;28;20029;-63
2023/08/15 02:45:18;;;;;;;9.20;4.28;;;22.00;99.90;;;;;;5010980;28;20038;-63
2023/08/15 02:47:45;;;;;;;7.47;4.15;;;22.00;99.90;;;;;;5010810;28;20041;-63
2023/08/15 02:50:11;;;;;;;9.50;4.32;;;22.20;99.90;;;;;;5012383;28;20115;-63
2023/08/15 02:52:37;;;;;;;12.50;5.32;;;22.30;99.90;;;;;;5013820;28;20030;-63
2023/08/15 02:55:04;;;;;;;12.95;4.75;;;22.30;99.90;;;;;;5013339;28;20034;-63
2023/08/15 02:57:30;;;;;;;9.23;4.82;;;22.40;99.90;;;;;;5014706;28;20033;-63
2023/08/15 02:59:56;;;;;;;8.18;4.25;;;22.50;99.90;;;;;;5014766;28;20038;-63
2023/08/15 03:02:23;;;;;;;10.80;3.80;;;22.50;99.90;;;;;;5010653;28;20046;-63
2023/08/15 03:04:48;;;;;;;12.95;4.32;;;22.60;99.90;;;;;;5013054;28;20111;-63
2023/08/15 03:07:14;;;;;;;13.55;4.25;;;22.60;99.90;;;;;;5014298;28;20069;-63
2023/08/15 03:09:40;;;;;;;9.95;4.05;;;22.70;99.90;;;;;;5014497;28;20389;-63
2023/08/15 03:12:06;;;;;;;12.07;5.22;;;22.70;99.90;;;;;;5018585;28;20046;-64
2023/08/15 03:14:31;;;;;;;14.52;4.47;;;22.70;99.90;;;;;;5010717;28;20037;-63
2023/08/15 03:16:57;;;;;;;8.52;4.05;;;22.60;99.90;;;;;;5007036;28;20068;-63
2023/08/15 03:19:23;;;;;;;9.73;4.65;;;22.40;99.90;;;;;;5013910;28;20049;-63
2023/08/15 03:21:48;;;;;;;10.68;4.78;;;22.30;99.90;;;;;;5014293;28;20486;-63
2023/08/15 03:24:15;;;;;;;17.25;4.47;;;22.30;99.90;;;;;;5013423;28;20080;-63
2023/08/15 03:26:42;;;;;;;13.35;5.35;;;22.30;99.90;;;;;;5012900;28;20040;-63
2023/08/15 03:29:08;;;;;;;11.15;5.82;;;22.30;99.90;;;;;;5012640;28;20116;-62
2023/08/15 03:31:33;;;;;;;11.75;4.20;;;22.30;99.90;;;;;;5014124;28;20554;-63
2023/08/15 03:34:00;;;;;;;9.23;4.18;;;22.20;99.90;;;;;;5011685;28;20040;-61
2023/08/15 03:36:25;;;;;;;12.00;4.72;;;22.10;99.90;;;;;;5009882;28;20506;-64
2023/08/15 03:38:52;;;;;;;8.93;3.95;;;22.00;99.90;;;;;;5010912;28;20049;-62
2023/08/15 03:41:18;;;;;;;6.55;4.05;;;21.90;99.90;;;;;;5006005;28;20079;-61
2023/08/15 03:43:44;;;;;;;8.95;4.15;;;21.70;99.90;;;;;;5011628;28;20057;-62
2023/08/15 03:46:10;;;;;;;8.43;4.70;;;21.80;99.90;;;;;;5006694;28;20042;-62
2023/08/15 03:48:36;;;;;;;5.93;3.25;;;21.70;99.90;;;;;;5004173;28;20036;-62
2023/08/15 03:51:02;;;;;;;8.55;4.25;;;21.80;99.90;;;;;;5003227;28;20046;-62
2023/08/15 03:53:28;;;;;;;6.75;4.70;;;21.60;99.90;;;;;;4998141;28;20093;-62
2023/08/15 03:55:54;;;;;;;7.90;3.95;;;21.60;99.90;;;;;;5002353;28;20033;-63
2023/08/15 03:58:21;;;;;;;9.35;4.57;;;21.60;99.90;;;;;;5011758;28;20029;-63
2023/08/15 04:00:48;;;;;;;12.68;4.95;;;21.50;99.90;;;;;;5012425;28;20083;-64
2023/08/15 04:03:15;;;;;;;7.13;4.28;;;21.40;99.90;;;;;;5011893;28;20029;-64
2023/08/15 04:05:47;;;;;;;8.23;3.88;;;21.30;99.90;;;;;;5010914;28;20405;-64
2023/08/15 04:08:15;;;;;;;8.75;5.05;;;21.40;99.90;;;;;;5003154;28;20112;-64
2023/08/15 04:10:43;;;;;;;14.75;4.00;;;21.40;99.90;;;;;;4972521;28;20053;-64
2023/08/15 04:13:09;;;;;;;8.88;4.93;;;21.60;99.90;;;;;;5000888;28;20034;-64
2023/08/15 04:15:37;;;;;;;7.50;4.07;;;21.70;99.90;;;;;;5019814;28;20113;-63
2023/08/15 04:18:08;;;;;;;9.60;3.90;;;21.80;99.90;;;;;;5044775;28;20025;-63
2023/08/15 04:20:42;;;;;;;7.93;4.20;;;21.80;99.90;;;;;;5028332;28;20431;-64
2023/08/15 04:23:09;;;;;;;7.60;3.88;;;21.80;99.90;;;;;;5044276;28;20033;-64
2023/08/15 04:25:37;;;;;;;7.20;4.00;;;21.80;99.90;;;;;;5044781;28;20567;-64
2023/08/15 04:28:03;;;;;;;6.68;3.97;;;21.80;99.90;;;;;;5012740;28;20022;-64
2023/08/15 04:30:30;;;;;;;13.10;4.63;;;21.80;99.90;;;;;;5011718;28;20053;-64
2023/08/15 04:32:58;;;;;;;8.10;4.28;;;21.80;99.90;;;;;;5012105;28;20052;-64
2023/08/15 04:35:25;;;;;;;12.50;4.30;;;21.90;99.90;;;;;;5010715;28;20064;-64
2023/08/15 04:37:50;;;;;;;5.35;3.25;;;21.90;99.90;;;;;;5011829;28;20022;-63
2023/08/15 04:40:30;;;;;;;10.82;3.95;;;21.90;99.90;;;;;;5012709;28;20030;-64
2023/08/15 04:42:56;;;;;;;6.25;3.83;;;21.90;99.90;;;;;;5011904;28;20071;-65
2023/08/15 04:45:22;;;;;;;6.43;3.10;;;21.90;99.90;;;;;;5012757;28;20057;-65
2023/08/15 04:47:48;;;;;;;10.00;4.82;;;22.00;99.90;;;;;;5007144;28;20037;-64
2023/08/15 04:50:13;;;;;;;6.93;4.05;;;22.00;99.90;;;;;;5012209;28;20029;-64
2023/08/15 04:52:39;;;;;;;9.60;4.10;;;22.00;99.90;;;;;;5023445;22;20137;-66
2023/08/15 04:55:06;;;;;;;13.73;4.38;;;22.00;99.90;;;;;;5002271;28;20070;-67
2023/08/15 04:57:32;;;;;;;14.10;4.45;;;21.90;99.90;;;;;;4991587;28;20482;-66
2023/08/15 04:59:57;;;;;;;13.90;4.20;;;22.00;99.90;;;;;;4992797;28;20034;-67
2023/08/15 05:02:23;;;;;;;8.30;3.80;;;22.00;99.90;;;;;;4994635;28;20022;-67
2023/08/15 05:04:49;;;;;;;9.32;4.38;;;22.10;99.90;;;;;;5012038;28;20112;-67
2023/08/15 05:07:14;;;;;;;7.15;3.55;;;22.20;99.90;;;;;;5011079;28;20103;-65
2023/08/15 05:09:40;;;;;;;9.95;4.55;;;22.20;99.90;;;;;;5012041;28;20026;-66
2023/08/15 05:12:06;;;;;;;4.78;3.00;;;22.20;99.90;;;;;;5010726;28;20081;-67
2023/08/15 05:14:32;;;;;;;6.30;3.28;;;22.10;99.90;;;;;;5006963;28;20038;-67
2023/08/15 05:16:58;;;;;;;12.32;4.07;;;22.00;99.90;;;;;;4992450;28;20041;-67
2023/08/15 05:19:24;;;;;;;6.15;3.30;;;22.00;99.90;;;;;;4992332;28;20030;-67
2023/08/15 05:21:50;;;;;;;7.47;3.90;;;22.10;99.90;;;;;;4992304;28;20105;-66
2023/08/15 05:24:15;;;;;;;8.20;2.60;;;22.00;99.90;;;;;;4990346;28;20034;-72
2023/08/15 05:26:41;;;;;;;5.90;3.15;;;22.00;99.90;;;;;;4997249;28;20597;-74
2023/08/15 05:29:07;;;;;;;5.47;2.53;;;22.10;99.90;;;;;;5010686;28;20034;-74
2023/08/15 05:31:33;;;;;;;7.45;2.20;;;22.10;99.90;;;;;;5012194;28;20497;-73
2023/08/15 05:33:59;;;;;;;5.32;2.83;;;22.00;99.90;;;;;;5010658;28;20046;-73
2023/08/15 05:36:24;;;;;;;5.65;2.38;;;22.00;99.90;;;;;;5011029;28;20033;-74
2023/08/15 05:38:50;;;;;;;4.30;2.58;;;22.00;99.90;;;;;;5011564;28;20624;-73
2023/08/15 05:41:16;;;;;;;4.82;2.53;;;22.00;99.90;;;;;;5011325;28;20037;-74
2023/08/15 05:43:42;;;;;;;4.07;2.15;;;22.10;99.90;;;;;;5025929;28;20091;-70
2023/08/15 05:46:07;;;;;;;9.70;2.00;;;22.10;99.90;;;;;;5011515;28;20022;-72
2023/08/15 05:48:33;;;;;;;9.15;2.50;;;22.10;99.90;;;;;;5011470;28;20029;-75
2023/08/15 05:50:59;;;;;;;3.85;2.50;;;22.20;99.90;;;;;;5011632;28;20502;-75
2023/08/15 05:53:25;;;;;;;6.55;2.83;;;22.30;99.90;;;;;;5010157;28;20044;-75
2023/08/15 05:55:51;;;;;;;4.28;2.30;;;22.40;99.90;;;;;;5011227;28;20030;-75
2023/08/15 05:58:17;;;;;;;5.32;3.20;;;22.60;99.90;;;;;;5010253;28;20026;-75
2023/08/15 06:00:43;;;;;;;6.95;3.55;;;22.60;99.90;;;;;;5010436;28;20457;-75
2023/08/15 06:03:08;;;;;;;7.57;3.45;;;22.70;99.90;;;;;;5008601;28;20041;-76
2023/08/15 06:05:34;;;;;;;5.57;3.05;;;22.60;99.90;;;;;;5010985;28;20026;-75
2023/08/15 06:08:00;;;;;;;4.50;2.53;;;22.60;99.90;;;;;;5010800;28;20030;-75
2023/08/15 06:10:26;;;;;;;4.40;2.70;;;22.70;99.90;;;;;;5010330;28;20053;-75
2023/08/15 06:12:51;;;;;;;5.95;3.40;;;22.70;99.90;;;;;;5011396;28;20482;-75
2023/08/15 06:15:17;;;;;;;5.45;2.55;;;22.80;99.90;;;;;;5009490;28;20112;-75
2023/08/15 06:17:43;;;;;;;5.80;2.65;;;22.80;99.90;;;;;;5008317;28;20034;-73
2023/08/15 06:20:10;;;;;;;7.75;2.42;;;22.80;99.90;;;;;;5011016;28;20026;-75
2023/08/15 06:22:36;;;;;;;7.30;2.85;;;23.00;99.90;;;;;;5009803;28;20057;-71
2023/08/15 06:25:02;;;;;;;4.30;2.38;;;23.10;99.90;;;;;;5010763;28;20441;-72
2023/08/15 06:27:28;;;;;;;4.65;2.20;;;23.20;99.90;;;;;;5010653;28;20121;-74
2023/08/15 06:29:53;;;;;;;4.18;2.17;;;23.30;99.90;;;;;;5009731;28;20113;-74
2023/08/15 06:32:32;;;;;;;4.15;2.35;;;23.40;99.90;;;;;;5025021;28;20060;-74
2023/08/15 06:34:59;;;;;;;2.38;1.60;;;23.50;99.90;;;;;;5010888;28;20121;-73
2023/08/15 06:37:25;;;;;;;8.60;1.98;;;23.60;99.90;;;;;;5025081;28;20025;-73
2023/08/15 06:39:51;;;;;;;6.40;2.92;;;23.70;99.90;;;;;;5009892;28;20552;-73
2023/08/15 06:42:17;;;;;;;3.22;1.73;;;23.90;99.90;;;;;;5009527;28;20026;-72
2023/08/15 06:44:43;;;;;;;3.72;1.55;;;23.90;99.90;;;;;;5009389;28;20514;-73
2023/08/15 06:47:09;;;;;;;4.95;1.55;;;24.10;99.90;;;;;;5009582;28;20104;-66
2023/08/15 06:49:36;;;;;;;5.97;2.38;;;24.10;99.90;;;;;;5009958;28;20026;-64
2023/08/15 06:52:03;;;;;;;4.78;1.73;;;24.10;99.90;;;;;;5009611;28;20149;-64
2023/08/15 06:54:29;;;;;;;3.08;1.30;;;24.20;99.90;;;;;;5016321;28;20042;-65
2023/08/15 06:56:54;;;;;;;4.30;1.48;;;24.30;99.90;;;;;;5009113;28;20034;-65
2023/08/15 06:59:23;;;;;;;1.65;1.00;;;24.30;99.90;;;;;;5010524;28;20030;-65
2023/08/15 07:01:52;;;;;;;2.30;1.42;;;24.30;99.90;;;;;;5010406;28;20022;-65
2023/08/15 07:04:18;;;;;;;3.20;1.00;;;24.60;99.90;;;;;;5009695;28;20517;-65
2023/08/15 07:06:44;;;;;;;1.95;1.15;;;24.70;99.90;;;;;;5010711;28;20034;-65
2023/08/15 07:09:11;;;;;;;2.75;1.40;;;24.80;99.90;;;;;;5010280;28;20451;-65
2023/08/15 07:11:36;;;;;;;4.20;2.05;;;24.90;99.90;;;;;;5009107;28;20034;-65
2023/08/15 07:14:03;;;;;;;2.33;1.23;;;25.00;99.90;;;;;;5008465;28;20406;-65
2023/08/15 07:16:28;;;;;;;3.10;0.98;;;25.10;99.90;;;;;;5010590;28;20037;-66
2023/08/15 07:18:54;;;;;;;2.22;1.13;;;25.10;99.90;;;;;;5009074;28;20149;-65
2023/08/15 07:21:20;;;;;;;4.43;1.48;;;25.20;99.90;;;;;;5010581;28;20030;-65
2023/08/15 07:23:45;;;;;;;3.13;1.27;;;25.20;99.90;;;;;;5009422;28;20390;-65
2023/08/15 07:26:11;;;;;;;2.28;1.35;;;25.40;99.90;;;;;;5009064;28;20030;-65
2023/08/15 07:28:37;;;;;;;5.85;1.60;;;25.30;99.90;;;;;;5010450;28;20506;-65
2023/08/15 07:31:03;;;;;;;7.40;1.52;;;25.30;99.90;;;;;;5010231;28;20044;-65
2023/08/15 07:33:29;;;;;;;2.78;1.77;;;25.40;99.90;;;;;;5009533;28;20030;-65
2023/08/15 07:35:55;;;;;;;5.15;1.52;;;25.30;99.90;;;;;;5027556;28;20087;-65
2023/08/15 07:38:20;;;;;;;4.13;1.23;;;25.20;99.90;;;;;;5013809;28;20034;-65
2023/08/15 07:40:47;;;;;;;4.90;1.58;;;25.30;99.90;;;;;;5013927;28;20029;-65
2023/08/15 07:43:14;;;;;;;2.17;1.25;;;25.50;99.90;;;;;;5012995;28;20108;-65
2023/08/15 07:45:39;;;;;;;3.55;1.75;;;25.60;99.90;;;;;;5013791;28;20057;-65
2023/08/15 07:48:06;;;;;;;8.60;2.15;;;25.60;99.90;;;;;;5014001;28;20489;-65
2023/08/15 07:50:31;;;;;;;4.95;1.83;;;25.60;99.90;;;;;;5013134;28;20109;-65
2023/08/15 07:52:58;;;;;;;4.07;1.67;;;25.60;99.90;;;;;;5028040;28;20121;-65
2023/08/15 07:55:25;;;;;;;6.50;2.05;;;25.60;99.90;;;;;;5028705;28;20029;-65
2023/08/15 07:57:51;;;;;;;3.28;1.40;;;25.70;99.90;;;;;;5012997;28;20018;-66
2023/08/15 08:00:18;;;;;;;3.63;1.42;;;25.70;99.90;;;;;;5013679;28;20028;-66
2023/08/15 08:02:45;;;;;;;8.50;3.25;;;25.70;99.90;;;;;;5011289;28;20543;-66
2023/08/15 08:05:14;;;;;;;4.32;1.73;;;25.70;99.90;;;;;;5013550;28;20598;-66
2023/08/15 08:07:41;;;;;;;4.43;1.63;;;25.40;99.90;;;;;;5013506;28;20128;-66
2023/08/15 08:10:07;;;;;;;4.32;1.60;;;25.50;99.90;;;;;;5011931;28;20040;-66
2023/08/15 08:12:34;;;;;;;2.60;1.50;;;25.50;99.90;;;;;;4992832;28;20031;-66
2023/08/15 08:15:01;;;;;;;5.68;1.60;;;25.70;99.90;;;;;;4995719;28;20172;-66
2023/08/15 08:17:26;;;;;;;2.03;1.23;;;25.70;99.90;;;;;;5013549;28;20621;-66
2023/08/15 08:19:53;;;;;;;2.55;1.33;;;25.70;99.90;;;;;;5013053;28;20038;-66
2023/08/15 08:22:19;;;;;;;3.53;1.90;;;25.70;99.90;;;;;;5011057;28;20401;-66
2023/08/15 08:24:45;;;;;;;2.83;1.67;;;25.90;99.90;;;;;;5011839;28;20033;-66
2023/08/15 08:27:11;;;;;;;3.92;1.80;;;26.10;99.90;;;;;;5011670;28;20509;-65
2023/08/15 08:29:38;;;;;;;6.22;1.45;;;26.00;99.90;;;;;;5013023;28;20030;-66
2023/08/15 08:32:03;;;;;;;3.10;1.75;;;25.90;99.90;;;;;;5012917;28;20084;-66
2023/08/15 08:34:29;;;;;;;2.83;1.58;;;26.00;99.90;;;;;;5027315;28;20038;-66
2023/08/15 08:36:55;;;;;;;2.03;1.33;;;26.10;99.90;;;;;;5012957;28;20112;-66
2023/08/15 08:39:21;;;;;;;4.93;1.92;;;26.10;99.90;;;;;;5012808;28;20028;-66
2023/08/15 08:41:47;;;;;;;3.55;1.40;;;26.10;99.90;;;;;;5012444;28;20371;-66
2023/08/15 08:44:15;;;;;;;3.28;1.55;;;26.20;99.90;;;;;;5011876;28;20470;-66
2023/08/15 08:46:41;;;;;;;2.33;1.20;;;26.30;99.90;;;;;;5027953;28;20121;-66
2023/08/15 08:49:09;;;;;;;3.63;1.65;;;26.40;99.90;;;;;;5027953;28;20497;-66
2023/08/15 08:51:37;;;;;;;1.58;1.20;;;26.40;99.90;;;;;;5027715;28;20041;-66
2023/08/15 08:54:03;;;;;;;2.30;1.30;;;26.60;99.90;;;;;;5026515;28;20038;-66
2023/08/15 08:56:31;;;;;;;2.97;1.30;;;26.60;99.90;;;;;;5012441;28;20041;-66
2023/08/15 08:59:10;;;;;;;2.53;1.10;;;26.90;99.90;;;;;;5011294;28;20089;-66
2023/08/15 09:01:37;;;;;;;2.17;1.20;;;26.90;99.90;;;;;;5027454;28;20022;-66
2023/08/15 09:04:04;;;;;;;2.55;1.33;;;27.10;99.90;;;;;;5026838;28;20120;-66
2023/08/15 09:06:29;;;;;;;3.95;1.67;;;27.30;99.90;;;;;;5012729;28;20053;-66
2023/08/15 09:08:58;;;;;;;1.55;0.70;;;27.40;99.90;;;;;;5012030;28;20029;-66
2023/08/15 09:11:36;;;;;;;3.95;1.10;;;27.60;99.90;;;;;;5016160;28;20097;-66
2023/08/15 09:14:04;;;;;;;2.13;0.90;;;27.70;99.90;;;;;;4991867;28;20045;-66
2023/08/15 09:16:31;;;;;;;2.42;0.90;;;27.80;99.90;;;;;;4991677;28;20084;-66
2023/08/15 09:19:04;;;;;;;1.15;0.65;;;27.80;99.90;;;;;;4992897;28;20026;-66
2023/08/15 09:21:30;;;;;;;4.75;1.73;;;27.70;99.90;;;;;;4991774;28;20066;-66
2023/08/15 09:23:57;;;;;;;3.47;1.88;;;27.90;99.90;;;;;;4990338;28;20042;-66
2023/08/15 09:26:23;;;;;;;2.55;1.30;;;27.90;99.90;;;;;;4991524;28;20810;-66
2023/08/15 09:28:50;;;;;;;3.65;0.90;;;28.10;99.90;;;;;;5007217;28;20057;-64
2023/08/15 09:31:15;;;;;;;1.48;0.70;;;28.10;99.90;;;;;;5007368;28;20030;-65
2023/08/15 09:33:41;;;;;;;4.75;0.90;;;28.10;99.90;;;;;;4991185;28;20539;-65
2023/08/15 09:36:09;;;;;;;2.58;1.10;;;28.30;99.90;;;;;;5007180;28;20030;-66
2023/08/15 09:38:39;;;;;;;1.23;0.85;;;28.30;99.90;;;;;;5007248;28;20483;-66
2023/08/15 09:41:09;;;;;;;1.52;1.02;;;28.60;99.90;;;;;;5007076;28;20026;-66
2023/08/15 09:43:35;;;;;;;2.28;1.10;;;28.50;99.90;;;;;;4991307;28;20035;-66
2023/08/15 09:46:01;;;;;;;3.05;1.20;;;28.30;99.90;;;;;;4991885;28;20117;-66
2023/08/15 09:48:28;;;;;;;2.97;1.17;;;28.30;99.90;;;;;;5007193;28;20029;-66
2023/08/15 09:50:57;;;;;;;3.92;1.23;;;28.20;99.90;;;;;;5007060;28;20030;-64
2023/08/15 09:53:24;;;;;;;2.13;1.10;;;28.20;99.90;;;;;;5005689;28;20044;-64
2023/08/15 09:55:51;;;;;;;2.38;1.25;;;28.40;99.90;;;;;;5011450;28;20099;-65
2023/08/15 09:58:19;;;;;;;2.78;1.30;;;28.50;99.90;;;;;;5009237;28;20032;-65
2023/08/15 10:00:50;;;;;;;4.30;2.15;;;28.70;99.90;;;;;;5011499;28;20053;-65
2023/08/15 10:03:32;;;;;;;2.97;1.70;;;28.80;99.90;;;;;;5010551;28;20524;-65
2023/08/15 10:05:59;;;;;;;2.95;1.65;;;29.00;99.90;;;;;;5025670;28;20034;-65
2023/08/15 10:08:25;;;;;;;2.45;1.50;;;29.00;99.90;;;;;;5010111;28;20064;-65
2023/08/15 10:10:52;;;;;;;4.20;1.65;;;28.80;99.90;;;;;;5003948;28;20026;-65
2023/08/15 10:13:28;;;;;;;2.38;1.20;;;28.70;99.90;;;;;;4998308;28;20105;-65
2023/08/15 10:15:55;;;;;;;2.30;1.60;;;28.40;99.90;;;;;;4990203;28;20030;-65
2023/08/15 10:18:21;;;;;;;2.33;1.30;;;28.40;99.90;;;;;;5002623;28;20040;-65
2023/08/15 10:20:56;;;;;;;3.17;1.50;;;28.70;99.90;;;;;;5009763;28;20033;-65
2023/08/15 10:23:37;;;;;;;2.83;1.25;;;28.70;99.90;;;;;;5009299;28;20045;-65
2023/08/15 10:26:03;;;;;;;3.22;1.70;;;28.90;99.90;;;;;;5010975;28;20032;-65
2023/08/15 10:28:32;;;;;;;3.13;1.52;;;29.00;99.90;;;;;;5010723;28;20184;-65
2023/08/15 10:30:58;;;;;;;2.92;1.30;;;28.70;99.90;;;;;;5025597;28;20057;-65
2023/08/15 10:33:28;;;;;;;2.78;1.27;;;28.90;99.90;;;;;;5024980;28;20076;-65
2023/08/15 10:35:54;;;;;;;3.60;1.67;;;28.90;99.90;;;;;;5010830;28;20038;-65
2023/08/15 10:38:39;;;;;;;2.65;1.55;;;28.90;99.90;;;;;;5010843;28;20100;-65
2023/08/15 10:41:17;;;;;;;2.88;1.60;;;28.90;99.90;;;;;;5009887;28;20521;-65
2023/08/15 10:43:59;;;;;;;2.38;1.48;;;29.00;99.90;;;;;;5009669;28;20040;-64
2023/08/15 10:46:30;;;;;;;5.53;1.95;;;29.10;99.90;;;;;;5010687;28;20045;-64
2023/08/15 10:49:23;;;;;;;5.13;2.40;;;28.90;99.90;;;;;;5025780;28;20375;-64
2023/08/15 10:51:48;;;;;;;2.65;1.75;;;29.00;99.90;;;;;;5010372;28;20041;-65
2023/08/15 10:54:15;;;;;;;4.15;2.25;;;29.20;99.90;;;;;;5031966;22;20058;-66
2023/08/15 10:56:42;;;;;;;4.93;1.55;;;28.80;99.90;;;;;;5010363;28;20109;-67
2023/08/15 10:59:19;;;;;;;2.55;1.60;;;29.30;99.90;;;;;;4989809;28;20023;-67
2023/08/15 11:01:46;;;;;;;4.18;2.03;;;29.70;99.90;;;;;;4991290;28;20053;-67
2023/08/15 11:04:22;;;;;;;3.65;1.55;;;29.60;99.90;;;;;;4989188;28;20037;-67
2023/08/15 11:06:52;;;;;;;2.33;1.45;;;30.00;99.90;;;;;;5005467;28;20490;-67
2023/08/15 11:09:18;;;;;;;4.40;2.33;;;29.40;99.90;;;;;;5005748;28;20501;-67
2023/08/15 11:11:45;;;;;;;5.60;1.92;;;29.00;99.90;;;;;;4996110;28;20046;-67
2023/08/15 11:14:19;;;;;;;4.75;2.00;;;29.00;99.90;;;;;;4974197;28;20086;-67
2023/08/15 11:16:47;;;;;;;3.65;1.85;;;28.80;99.90;;;;;;4974165;28;20039;-67
2023/08/15 11:19:18;;;;;;;4.93;1.85;;;29.00;99.90;;;;;;4975661;28;20046;-67
2023/08/15 11:21:44;;;;;;;2.60;1.58;;;28.60;99.90;;;;;;4990732;28;20023;-67
2023/08/15 11:24:10;;;;;;;7.03;1.85;;;28.50;99.90;;;;;;4989452;28;20034;-67
2023/08/15 11:26:36;;;;;;;4.20;1.70;;;28.40;99.90;;;;;;4995552;28;20030;-67
2023/08/15 11:29:03;;;;;;;2.95;1.65;;;28.30;99.90;;;;;;4994915;28;20035;-66
2023/08/15 11:31:30;;;;;;;3.03;1.85;;;28.20;99.90;;;;;;4994560;28;20037;-66
2023/08/15 11:34:00;;;;;;;2.63;1.77;;;28.00;99.90;;;;;;4993887;28;20034;-68
2023/08/15 11:36:26;;;;;;;3.13;1.38;;;28.00;99.90;;;;;;4993308;28;20030;-67
2023/08/15 11:38:51;;;;;;;4.70;1.83;;;28.00;99.90;;;;;;5009710;28;20042;-66
2023/08/15 11:41:18;;;;;;;3.50;1.35;;;27.90;99.90;;;;;;4994484;28;20045;-67
2023/08/15 11:43:45;;;;;;;3.65;1.38;;;27.70;99.90;;;;;;5008877;28;20041;-66
2023/08/15 11:46:11;;;;;;;3.00;1.40;;;27.20;99.90;;;;;;4993068;28;20054;-66
2023/08/15 11:48:37;;;;;;;1.67;0.90;;;26.60;99.90;;;;;;4994353;28;20544;-67
2023/08/15 11:51:05;;;;;;;3.58;1.60;;;26.40;99.90;;;;;;4994433;28;20033;-67
2023/08/15 11:53:31;;;;;;;5.03;1.73;;;26.20;99.90;;;;;;5008266;28;20035;-67
2023/08/15 11:55:57;;;;;;;3.13;1.85;;;26.30;99.90;;;;;;5009210;28;20540;-67
2023/08/15 11:58:31;;;;;;;3.65;1.85;;;26.30;99.90;;;;;;4994284;28;20034;-67
2023/08/15 12:01:11;;;;;;;2.60;1.33;;;26.60;99.90;;;;;;5008912;28;20030;-67
2023/08/15 12:03:38;;;;;;;8.33;1.50;;;26.70;99.90;;;;;;5004142;28;20104;-67
2023/08/15 12:06:11;;;;;;;4.85;1.65;;;27.00;99.90;;;;;;4962021;28;20373;-67
2023/08/15 12:08:41;;;;;;;2.78;1.48;;;27.30;99.90;;;;;;4974668;28;20117;-67
2023/08/15 12:11:08;;;;;;;3.80;1.50;;;27.70;99.90;;;;;;4974814;28;20022;-67
2023/08/15 12:13:37;;;;;;;2.90;1.40;;;27.80;99.90;;;;;;4972171;28;20039;-67
2023/08/15 12:16:04;;;;;;;2.83;1.20;;;28.20;99.90;;;;;;4988779;28;20436;-67
2023/08/15 12:18:31;;;;;;;4.85;1.48;;;28.80;99.90;;;;;;4974458;28;20065;-68
2023/08/15 12:20:58;;;;;;;2.65;1.45;;;29.40;99.90;;;;;;4973705;28;20022;-67
2023/08/15 12:23:25;;;;;;;3.50;1.25;;;29.90;99.90;;;;;;4988111;28;20039;-67
2023/08/15 12:25:51;;;;;;;3.30;1.58;;;30.20;99.90;;;;;;4973084;28;20042;-67
2023/08/15 12:28:20;;;;;;;2.67;1.00;;;30.20;99.90;;;;;;4992816;28;20030;-68
2023/08/15 12:30:46;;;;;;;4.30;1.80;;;30.10;99.70;;;;;;5008209;28;20471;-67
2023/08/15 12:33:12;;;;;;;2.08;1.30;;;30.50;99.50;;;;;;5007834;28;20022;-67
2023/08/15 12:35:38;;;;;;;2.00;1.20;;;30.30;98.70;;;;;;5008583;28;20096;-67
2023/08/15 12:38:04;;;;;;;3.08;1.52;;;30.10;99.40;;;;;;4993239;28;20022;-67
2023/08/15 12:40:30;;;;;;;5.03;0.95;;;30.00;99.40;;;;;;4993466;28;20591;-68
2023/08/15 12:42:55;;;;;;;2.90;1.45;;;29.90;98.70;;;;;;5007521;28;20126;-67
2023/08/15 12:45:21;;;;;;;3.50;1.35;;;30.00;99.80;;;;;;4993281;28;20034;-67
2023/08/15 12:47:48;;;;;;;1.98;1.00;;;30.30;98.90;;;;;;4993142;28;20041;-68